Time;durP1;ratioP1;P1;durP2;ratioP2;P2;SDS_P1;SDS_P2;PMS_P1;PMS_P2;Temp;Humidity;BMP_temperature;BMP_pressure;BME280_temperature;BME280_humidity;BME280_pressure;Samples;Min_cycle;Max_cycle;Signal;HPM_P1;HPM_P2
2021/05/27 00:00:16;;;;;;;3.45;1.95;;;;;;;;;;3616202;39;20040;-63
2021/05/27 00:02:42;;;;;;;4.43;2.65;;;;;;;;;;3615655;39;20091;-63
2021/05/27 00:05:08;;;;;;;4.45;2.42;;;;;;;;;;3616985;39;20051;-63
2021/05/27 00:07:34;;;;;;;4.45;2.38;;;;;;;;;;3617489;39;20255;-63
2021/05/27 00:09:59;;;;;;;8.65;2.47;;;;;;;;;;3617203;39;20391;-63
2021/05/27 00:12:25;;;;;;;4.45;2.17;;;;;;;;;;3617574;39;20047;-63
2021/05/27 00:14:51;;;;;;;6.55;2.53;;;;;;;;;;3617888;39;20392;-63
2021/05/27 00:17:16;;;;;;;4.75;2.40;;;;;;;;;;3618092;39;20039;-63
2021/05/27 00:19:42;;;;;;;4.07;2.25;;;;;;;;;;3617575;39;20282;-63
2021/05/27 00:22:08;;;;;;;5.78;2.38;;;;;;;;;;3617522;39;20044;-63
2021/05/27 00:24:34;;;;;;;6.95;2.65;;;;;;;;;;3617339;39;20040;-63
2021/05/27 00:26:59;;;;;;;5.30;2.75;;;;;;;;;;3617822;39;20054;-63
2021/05/27 00:29:24;;;;;;;4.07;2.65;;;;;;;;;;3617298;39;20023;-63
2021/05/27 00:31:50;;;;;;;8.25;2.60;;;;;;;;;;3617784;39;20259;-63
2021/05/27 00:34:15;;;;;;;8.60;2.95;;;;;;;;;;3617816;39;20035;-63
2021/05/27 00:36:41;;;;;;;3.78;2.10;;;;;;;;;;3617696;39;20035;-63
2021/05/27 00:39:06;;;;;;;4.68;2.53;;;;;;;;;;3617105;39;20051;-63
2021/05/27 00:41:32;;;;;;;4.90;2.20;;;;;;;;;;3617374;39;20031;-63
2021/05/27 00:43:57;;;;;;;4.13;2.33;;;;;;;;;;3617609;39;20036;-63
2021/05/27 00:46:22;;;;;;;5.57;2.40;;;;;;;;;;3617911;39;20023;-63
2021/05/27 00:48:58;;;;;;;5.28;2.63;;;;;;;;;;3616745;39;20034;-63
2021/05/27 00:51:29;;;;;;;7.07;2.63;;;;;;;;;;3617510;39;20043;-63
2021/05/27 00:53:56;;;;;;;5.07;2.72;;;;;;;;;;3617233;39;20358;-63
2021/05/27 00:56:22;;;;;;;8.40;3.75;;;;;;;;;;3616905;39;20112;-63
2021/05/27 00:58:48;;;;;;;4.05;2.50;;;;;;;;;;3617658;39;20067;-63
2021/05/27 01:01:13;;;;;;;4.22;2.70;;;;;;;;;;3617296;39;20049;-63
2021/05/27 01:03:39;;;;;;;7.70;3.47;;;;;;;;;;3615460;39;20043;-63
2021/05/27 01:06:04;;;;;;;7.47;3.35;;;;;;;;;;3616648;39;20031;-63
2021/05/27 01:08:30;;;;;;;4.78;2.78;;;;;;;;;;3616056;39;20035;-63
2021/05/27 01:10:56;;;;;;;5.68;3.05;;;;;;;;;;3607893;39;20028;-63
2021/05/27 01:13:22;;;;;;;4.78;2.65;;;;;;;;;;3616398;39;20051;-63
2021/05/27 01:15:48;;;;;;;6.10;3.60;;;;;;;;;;3617565;39;20039;-63
2021/05/27 01:18:15;;;;;;;5.72;3.03;;;;;;;;;;3617804;39;20305;-63
2021/05/27 01:20:43;;;;;;;6.97;3.30;;;;;;;;;;3613843;39;20042;-63
2021/05/27 01:23:09;;;;;;;5.72;3.58;;;;;;;;;;3616558;39;20046;-63
2021/05/27 01:25:37;;;;;;;6.25;3.13;;;;;;;;;;3617395;39;20042;-63
2021/05/27 01:28:02;;;;;;;4.10;2.60;;;;;;;;;;3617511;39;20390;-63
2021/05/27 01:30:28;;;;;;;4.32;2.95;;;;;;;;;;3616032;39;20042;-63
2021/05/27 01:32:53;;;;;;;6.07;3.30;;;;;;;;;;3616352;39;20044;-63
2021/05/27 01:35:21;;;;;;;5.82;3.20;;;;;;;;;;3616600;39;20039;-63
2021/05/27 01:37:47;;;;;;;6.35;3.80;;;;;;;;;;3616537;39;20035;-63
2021/05/27 01:40:13;;;;;;;6.47;3.35;;;;;;;;;;3616830;39;20140;-63
2021/05/27 01:42:39;;;;;;;6.75;3.42;;;;;;;;;;3617063;39;20478;-63
2021/05/27 01:45:05;;;;;;;7.40;3.45;;;;;;;;;;3616681;39;20031;-63
2021/05/27 01:47:31;;;;;;;6.38;3.50;;;;;;;;;;3616953;39;20027;-63
2021/05/27 01:49:56;;;;;;;6.60;3.40;;;;;;;;;;3617358;39;20405;-63
2021/05/27 01:52:22;;;;;;;5.47;3.33;;;;;;;;;;3617060;39;20323;-63
2021/05/27 01:54:47;;;;;;;5.35;3.28;;;;;;;;;;3616286;39;20054;-63
2021/05/27 01:57:13;;;;;;;7.97;3.53;;;;;;;;;;3617520;39;20050;-63
2021/05/27 01:59:38;;;;;;;6.07;3.47;;;;;;;;;;3616533;39;20819;-62
2021/05/27 02:02:04;;;;;;;8.27;4.28;;;;;;;;;;3617088;39;20065;-63
2021/05/27 02:04:29;;;;;;;5.65;3.70;;;;;;;;;;3615445;39;20362;-63
2021/05/27 02:06:55;;;;;;;8.02;4.05;;;;;;;;;;3617178;39;20046;-63
2021/05/27 02:09:20;;;;;;;5.72;3.97;;;;;;;;;;3616879;39;20132;-63
2021/05/27 02:11:47;;;;;;;8.27;4.43;;;;;;;;;;3615406;39;20093;-63
2021/05/27 02:14:14;;;;;;;7.78;4.38;;;;;;;;;;3616712;39;20035;-63
2021/05/27 02:16:42;;;;;;;13.13;4.75;;;;;;;;;;3616847;39;20035;-63
2021/05/27 02:19:08;;;;;;;7.75;4.70;;;;;;;;;;3616725;39;20051;-63
2021/05/27 02:21:35;;;;;;;9.73;4.55;;;;;;;;;;3612748;39;20039;-63
2021/05/27 02:24:02;;;;;;;6.38;4.30;;;;;;;;;;3615839;39;20031;-63
2021/05/27 02:26:28;;;;;;;9.15;4.68;;;;;;;;;;3616303;39;20362;-63
2021/05/27 02:28:54;;;;;;;8.23;4.60;;;;;;;;;;3616783;39;20043;-63
2021/05/27 02:31:21;;;;;;;6.82;4.82;;;;;;;;;;3609539;39;20443;-63
2021/05/27 02:33:48;;;;;;;12.18;4.50;;;;;;;;;;3616832;39;20038;-63
2021/05/27 02:36:14;;;;;;;7.35;4.38;;;;;;;;;;3617300;39;20045;-63
2021/05/27 02:38:39;;;;;;;7.70;4.43;;;;;;;;;;3606613;39;20031;-63
2021/05/27 02:41:05;;;;;;;6.15;4.70;;;;;;;;;;3616849;39;20381;-63
2021/05/27 02:43:32;;;;;;;9.25;5.75;;;;;;;;;;3616705;39;20064;-63
2021/05/27 02:45:58;;;;;;;6.43;4.93;;;;;;;;;;3616505;39;20063;-63
2021/05/27 02:48:24;;;;;;;10.70;6.30;;;;;;;;;;3617560;39;20043;-63
2021/05/27 02:50:49;;;;;;;10.00;5.97;;;;;;;;;;3617157;39;20052;-63
2021/05/27 02:53:15;;;;;;;6.88;5.22;;;;;;;;;;3617136;39;20058;-63
2021/05/27 02:55:40;;;;;;;9.18;5.57;;;;;;;;;;3616217;39;20066;-63
2021/05/27 02:58:06;;;;;;;12.38;5.80;;;;;;;;;;3616930;39;20093;-63
2021/05/27 03:00:31;;;;;;;8.00;5.13;;;;;;;;;;3616606;39;20332;-63
2021/05/27 03:02:57;;;;;;;8.10;5.38;;;;;;;;;;3617143;39;20065;-63
2021/05/27 03:05:22;;;;;;;8.48;6.22;;;;;;;;;;3615385;39;20374;-63
2021/05/27 03:07:48;;;;;;;11.10;7.10;;;;;;;;;;3615688;39;20042;-63
2021/05/27 03:10:13;;;;;;;9.55;6.43;;;;;;;;;;3616506;39;20069;-63
2021/05/27 03:12:38;;;;;;;9.43;6.82;;;;;;;;;;3616673;39;20124;-64
2021/05/27 03:15:06;;;;;;;10.57;7.50;;;;;;;;;;3615975;39;20036;-63
2021/05/27 03:17:31;;;;;;;11.15;7.47;;;;;;;;;;3616040;39;20290;-63
2021/05/27 03:19:57;;;;;;;9.82;7.47;;;;;;;;;;3617048;39;20031;-63
2021/05/27 03:22:23;;;;;;;10.68;7.30;;;;;;;;;;3616534;39;20363;-63
2021/05/27 03:24:48;;;;;;;10.77;7.30;;;;;;;;;;3616104;39;20071;-63
2021/05/27 03:27:14;;;;;;;10.85;7.80;;;;;;;;;;3616924;39;20042;-63
2021/05/27 03:29:40;;;;;;;10.60;7.80;;;;;;;;;;3616400;39;20290;-63
2021/05/27 03:32:05;;;;;;;11.40;8.45;;;;;;;;;;3606797;39;20027;-63
2021/05/27 03:34:31;;;;;;;9.25;6.95;;;;;;;;;;3616417;39;20031;-63
2021/05/27 03:36:56;;;;;;;12.52;7.40;;;;;;;;;;3618252;39;20031;-63
2021/05/27 03:39:22;;;;;;;10.55;7.30;;;;;;;;;;3617468;39;20332;-63
2021/05/27 03:41:47;;;;;;;9.63;8.15;;;;;;;;;;3617162;39;20035;-63
2021/05/27 03:44:13;;;;;;;8.57;7.68;;;;;;;;;;3617517;39;20663;-63
2021/05/27 03:46:38;;;;;;;12.18;8.65;;;;;;;;;;3616984;39;20127;-63
2021/05/27 03:49:04;;;;;;;9.85;7.78;;;;;;;;;;3617070;39;20028;-63
2021/05/27 03:51:29;;;;;;;13.23;8.20;;;;;;;;;;3617525;39;20035;-63
2021/05/27 03:53:54;;;;;;;9.40;7.43;;;;;;;;;;3617763;39;20059;-64
2021/05/27 03:56:20;;;;;;;12.35;9.00;;;;;;;;;;3617248;39;20065;-63
2021/05/27 04:01:30;;;;;;;9.57;8.15;;;;;;;;;;3617433;39;20275;-63
2021/05/27 04:09:23;;;;;;;14.90;9.48;;;;;;;;;;3616061;39;20039;-63
2021/05/27 04:11:48;;;;;;;10.75;8.23;;;;;;;;;;3617308;39;20027;-64
2021/05/27 04:14:14;;;;;;;12.32;7.90;;;;;;;;;;3617090;39;20063;-63
2021/05/27 04:16:39;;;;;;;11.65;8.48;;;;;;;;;;3617196;39;20051;-63
2021/05/27 04:19:05;;;;;;;12.98;8.18;;;;;;;;;;3616267;39;20150;-64
2021/05/27 04:21:30;;;;;;;9.68;8.25;;;;;;;;;;3615537;39;20047;-64
2021/05/27 04:23:55;;;;;;;11.75;7.63;;;;;;;;;;3616645;39;20039;-64
2021/05/27 04:26:21;;;;;;;13.25;8.20;;;;;;;;;;3616877;39;20063;-64
2021/05/27 04:28:47;;;;;;;9.98;7.88;;;;;;;;;;3617572;39;20055;-64
2021/05/27 04:31:16;;;;;;;10.13;7.50;;;;;;;;;;3616747;39;20195;-64
2021/05/27 04:33:47;;;;;;;11.18;7.68;;;;;;;;;;3616860;39;20075;-63
2021/05/27 04:36:16;;;;;;;11.23;7.53;;;;;;;;;;3617003;39;20126;-64
2021/05/27 04:38:42;;;;;;;14.00;8.00;;;;;;;;;;3616787;39;20048;-64
2021/05/27 04:41:08;;;;;;;9.70;7.80;;;;;;;;;;3617591;39;20031;-64
2021/05/27 04:43:35;;;;;;;11.88;8.27;;;;;;;;;;3617678;39;20049;-63
2021/05/27 04:46:01;;;;;;;10.40;8.73;;;;;;;;;;3616990;39;20457;-63
2021/05/27 04:48:27;;;;;;;11.18;7.72;;;;;;;;;;3616212;39;20035;-64
2021/05/27 04:50:53;;;;;;;9.75;7.90;;;;;;;;;;3617063;39;20135;-64
2021/05/27 04:53:20;;;;;;;10.98;7.88;;;;;;;;;;3617444;39;20275;-64
2021/05/27 04:55:46;;;;;;;15.95;8.18;;;;;;;;;;3607366;39;20418;-64
2021/05/27 04:58:12;;;;;;;12.30;7.97;;;;;;;;;;3616740;39;20043;-64
2021/05/27 05:00:38;;;;;;;10.80;7.80;;;;;;;;;;3617406;39;20384;-64
2021/05/27 05:03:04;;;;;;;8.32;7.20;;;;;;;;;;3617189;39;20386;-64
2021/05/27 05:05:31;;;;;;;10.75;8.00;;;;;;;;;;3606793;39;20054;-63
2021/05/27 05:07:57;;;;;;;12.25;7.82;;;;;;;;;;3617742;39;20060;-64
2021/05/27 05:10:24;;;;;;;10.68;8.35;;;;;;;;;;3617483;39;20411;-64
2021/05/27 05:12:50;;;;;;;11.23;7.80;;;;;;;;;;3617004;39;20363;-63
2021/05/27 05:15:34;;;;;;;8.90;7.75;;;;;;;;;;3617823;39;20361;-63
2021/05/27 05:18:04;;;;;;;10.45;8.30;;;;;;;;;;3617725;39;20039;-64
2021/05/27 05:20:32;;;;;;;12.18;8.10;;;;;;;;;;3608078;39;20027;-64
2021/05/27 05:22:59;;;;;;;10.27;7.32;;;;;;;;;;3616433;39;20270;-64
2021/05/27 05:25:25;;;;;;;12.10;8.68;;;;;;;;;;3616446;39;20035;-63
2021/05/27 05:27:52;;;;;;;13.07;8.65;;;;;;;;;;3616982;39;20039;-63
2021/05/27 05:30:18;;;;;;;10.35;8.68;;;;;;;;;;3616656;39;20027;-63
2021/05/27 05:32:45;;;;;;;10.93;7.97;;;;;;;;;;3616861;39;20267;-63
2021/05/27 05:35:12;;;;;;;13.75;9.05;;;;;;;;;;3617568;39;20027;-63
2021/05/27 05:37:39;;;;;;;12.95;8.57;;;;;;;;;;3616114;39;20054;-64
2021/05/27 05:40:08;;;;;;;11.07;9.00;;;;;;;;;;3617459;39;20059;-63
2021/05/27 05:42:33;;;;;;;15.90;8.40;;;;;;;;;;3617112;39;20042;-63
2021/05/27 05:44:59;;;;;;;9.90;7.93;;;;;;;;;;3607582;39;20039;-63
2021/05/27 05:47:24;;;;;;;13.70;8.60;;;;;;;;;;3616515;39;20030;-63
2021/05/27 05:49:50;;;;;;;10.07;8.13;;;;;;;;;;3606033;39;20389;-63
2021/05/27 05:52:15;;;;;;;11.10;7.97;;;;;;;;;;3618667;39;20370;-63
2021/05/27 05:54:41;;;;;;;12.82;8.27;;;;;;;;;;3619339;39;20055;-63
2021/05/27 05:57:06;;;;;;;13.63;9.57;;;;;;;;;;3620983;39;20066;-63
2021/05/27 05:59:32;;;;;;;14.93;9.40;;;;;;;;;;3619370;39;20042;-63
2021/05/27 06:01:57;;;;;;;14.13;10.73;;;;;;;;;;3617573;39;20026;-63
2021/05/27 06:04:23;;;;;;;11.85;9.50;;;;;;;;;;3616038;39;20261;-63
2021/05/27 06:06:51;;;;;;;17.00;10.10;;;;;;;;;;3617037;39;20027;-63
2021/05/27 06:09:16;;;;;;;13.32;10.27;;;;;;;;;;3615528;39;20461;-63
2021/05/27 06:11:42;;;;;;;15.32;9.80;;;;;;;;;;3614622;39;20051;-63
2021/05/27 06:14:07;;;;;;;13.77;9.05;;;;;;;;;;3615723;39;20027;-63
2021/05/27 06:16:33;;;;;;;11.10;9.02;;;;;;;;;;3614199;39;20035;-63
2021/05/27 06:18:58;;;;;;;12.02;8.68;;;;;;;;;;3615466;39;20043;-63
2021/05/27 06:21:24;;;;;;;12.27;9.20;;;;;;;;;;3614144;39;20032;-63
2021/05/27 06:23:49;;;;;;;10.60;8.52;;;;;;;;;;3615132;39;20399;-63
2021/05/27 06:26:15;;;;;;;11.45;8.27;;;;;;;;;;3615624;39;20070;-63
2021/05/27 06:28:40;;;;;;;12.23;8.32;;;;;;;;;;3615869;39;20050;-63
2021/05/27 06:31:06;;;;;;;15.07;9.02;;;;;;;;;;3616365;39;20040;-63
2021/05/27 06:33:32;;;;;;;10.63;8.27;;;;;;;;;;3607089;39;20119;-63
2021/05/27 06:35:58;;;;;;;10.05;7.10;;;;;;;;;;3615294;39;20126;-62
2021/05/27 06:38:24;;;;;;;11.25;8.05;;;;;;;;;;3614957;39;20050;-63
2021/05/27 06:40:49;;;;;;;13.57;7.53;;;;;;;;;;3614119;39;20043;-62
2021/05/27 06:43:14;;;;;;;11.70;8.13;;;;;;;;;;3615635;39;20131;-62
2021/05/27 06:45:40;;;;;;;10.10;7.82;;;;;;;;;;3615416;39;20956;-63
2021/05/27 06:48:06;;;;;;;14.40;8.27;;;;;;;;;;3614051;39;20059;-63
2021/05/27 06:50:40;;;;;;;11.88;8.20;;;;;;;;;;3615854;39;20031;-63
2021/05/27 06:53:10;;;;;;;9.55;7.57;;;;;;;;;;3615796;39;20046;-62
2021/05/27 06:55:37;;;;;;;10.30;7.57;;;;;;;;;;3615008;39;20132;-62
2021/05/27 06:58:04;;;;;;;12.10;7.75;;;;;;;;;;3615150;39;20054;-62
2021/05/27 07:00:29;;;;;;;9.18;7.60;;;;;;;;;;3615540;39;20144;-63
2021/05/27 07:02:56;;;;;;;9.48;8.13;;;;;;;;;;3616215;39;20039;-63
2021/05/27 07:05:22;;;;;;;10.30;8.40;;;;;;;;;;3615335;39;20051;-62
2021/05/27 07:07:48;;;;;;;14.32;8.27;;;;;;;;;;3607536;39;20045;-63
2021/05/27 07:10:15;;;;;;;11.57;7.88;;;;;;;;;;3614338;39;20035;-62
2021/05/27 07:12:51;;;;;;;10.15;7.22;;;;;;;;;;3615003;39;20046;-63
2021/05/27 07:15:19;;;;;;;12.98;6.32;;;;;;;;;;3616494;39;20027;-63
2021/05/27 07:17:45;;;;;;;7.53;4.60;;;;;;;;;;3616110;39;20035;-63
2021/05/27 07:20:11;;;;;;;7.03;4.88;;;;;;;;;;3614627;39;20039;-62
2021/05/27 07:22:37;;;;;;;7.30;4.95;;;;;;;;;;3614997;39;20107;-63
2021/05/27 07:25:04;;;;;;;12.35;4.88;;;;;;;;;;3615018;39;20039;-62
2021/05/27 07:27:29;;;;;;;10.65;4.43;;;;;;;;;;3612583;39;20079;-62
2021/05/27 07:29:55;;;;;;;5.43;3.60;;;;;;;;;;3616537;39;20123;-61
2021/05/27 07:32:20;;;;;;;5.13;3.67;;;;;;;;;;3616693;39;20046;-62
2021/05/27 07:34:45;;;;;;;7.25;4.22;;;;;;;;;;3615242;39;20119;-62
2021/05/27 07:37:12;;;;;;;6.25;3.80;;;;;;;;;;3606279;39;20094;-61
2021/05/27 07:39:37;;;;;;;7.00;4.07;;;;;;;;;;3605659;39;20038;-61
2021/05/27 07:42:06;;;;;;;6.13;4.10;;;;;;;;;;3616497;39;20036;-62
2021/05/27 07:44:32;;;;;;;6.18;3.67;;;;;;;;;;3615001;39;20067;-62
2021/05/27 07:46:58;;;;;;;5.20;3.40;;;;;;;;;;3615174;39;20411;-61
2021/05/27 07:49:23;;;;;;;8.13;3.65;;;;;;;;;;3616060;39;20028;-61
2021/05/27 07:51:49;;;;;;;9.65;3.50;;;;;;;;;;3616448;39;20039;-61
2021/05/27 07:54:14;;;;;;;6.32;3.38;;;;;;;;;;3614370;39;20143;-62
2021/05/27 07:56:40;;;;;;;10.73;3.92;;;;;;;;;;3606742;39;20039;-62
2021/05/27 07:59:05;;;;;;;5.88;3.42;;;;;;;;;;3616371;39;20299;-62
2021/05/27 08:01:31;;;;;;;5.70;3.35;;;;;;;;;;3616492;39;20039;-62
2021/05/27 08:03:56;;;;;;;7.00;3.63;;;;;;;;;;3616316;39;20052;-62
2021/05/27 08:06:21;;;;;;;6.53;2.97;;;;;;;;;;3606117;39;20188;-62
2021/05/27 08:08:48;;;;;;;8.40;3.35;;;;;;;;;;3616423;39;20143;-62
2021/05/27 08:11:13;;;;;;;5.30;3.13;;;;;;;;;;3616468;39;20063;-62
2021/05/27 08:13:39;;;;;;;8.98;3.25;;;;;;;;;;3615255;39;20039;-62
2021/05/27 08:16:04;;;;;;;6.20;3.45;;;;;;;;;;3616408;39;20035;-62
2021/05/27 08:18:30;;;;;;;5.40;3.35;;;;;;;;;;3616092;39;20048;-61
2021/05/27 08:20:55;;;;;;;5.40;3.30;;;;;;;;;;3616400;39;20035;-62
2021/05/27 08:23:21;;;;;;;13.85;3.72;;;;;;;;;;3616451;39;20027;-62
2021/05/27 08:25:46;;;;;;;6.07;3.40;;;;;;;;;;3616580;39;20377;-61
2021/05/27 08:28:12;;;;;;;8.10;3.67;;;;;;;;;;3608581;39;20100;-62
2021/05/27 08:30:37;;;;;;;8.57;2.80;;;;;;;;;;3616210;39;20204;-62
2021/05/27 08:33:03;;;;;;;8.35;3.05;;;;;;;;;;3617849;39;20030;-63
2021/05/27 08:35:28;;;;;;;9.82;3.40;;;;;;;;;;3617532;39;20024;-62
2021/05/27 08:37:54;;;;;;;4.65;2.72;;;;;;;;;;3617530;39;20398;-62
2021/05/27 08:40:19;;;;;;;6.60;2.72;;;;;;;;;;3617999;39;20031;-62
2021/05/27 08:42:44;;;;;;;7.13;3.45;;;;;;;;;;3617556;39;20327;-62
2021/05/27 08:45:10;;;;;;;10.50;3.70;;;;;;;;;;3617104;39;20031;-61
2021/05/27 08:47:36;;;;;;;6.57;3.65;;;;;;;;;;3617436;39;20330;-61
2021/05/27 08:50:04;;;;;;;6.35;3.75;;;;;;;;;;3617426;39;20043;-62
2021/05/27 08:52:29;;;;;;;26.15;3.75;;;;;;;;;;3617040;39;20034;-62
2021/05/27 08:54:55;;;;;;;4.47;2.92;;;;;;;;;;3616917;39;20067;-62
2021/05/27 08:57:20;;;;;;;5.43;3.22;;;;;;;;;;3617998;39;20059;-62
2021/05/27 08:59:46;;;;;;;6.53;3.35;;;;;;;;;;3616769;39;20035;-61
2021/05/27 09:02:12;;;;;;;4.90;2.88;;;;;;;;;;3617622;39;20031;-62
2021/05/27 09:04:39;;;;;;;5.57;2.90;;;;;;;;;;3616240;39;20035;-62
2021/05/27 09:07:06;;;;;;;6.05;3.33;;;;;;;;;;3617135;39;20301;-62
2021/05/27 09:09:48;;;;;;;4.35;2.83;;;;;;;;;;3616575;39;20104;-61
2021/05/27 09:12:32;;;;;;;7.53;3.17;;;;;;;;;;3616793;39;20035;-62
2021/05/27 09:14:59;;;;;;;5.82;2.85;;;;;;;;;;3617207;39;20051;-61
2021/05/27 09:17:25;;;;;;;7.72;3.85;;;;;;;;;;3606675;39;20039;-61
2021/05/27 09:20:12;;;;;;;7.70;3.38;;;;;;;;;;3616373;39;20035;-61
2021/05/27 09:22:38;;;;;;;6.70;3.50;;;;;;;;;;3616610;39;20868;-61
2021/05/27 09:25:04;;;;;;;7.82;3.00;;;;;;;;;;3617248;39;20042;-61
2021/05/27 09:27:44;;;;;;;6.45;2.85;;;;;;;;;;3613884;39;20035;-61
2021/05/27 09:30:10;;;;;;;7.72;3.17;;;;;;;;;;3615351;39;20379;-61
2021/05/27 09:32:39;;;;;;;5.38;2.97;;;;;;;;;;3614938;39;20058;-62
2021/05/27 09:35:09;;;;;;;4.30;2.40;;;;;;;;;;3616077;39;20032;-61
2021/05/27 09:37:34;;;;;;;5.77;3.03;;;;;;;;;;3616959;39;20032;-61
2021/05/27 09:40:02;;;;;;;4.32;2.55;;;;;;;;;;3617275;39;20276;-61
2021/05/27 09:42:28;;;;;;;6.85;2.53;;;;;;;;;;3615648;39;20148;-60
2021/05/27 09:44:54;;;;;;;6.45;3.00;;;;;;;;;;3615415;39;20670;-60
2021/05/27 09:47:30;;;;;;;5.10;2.80;;;;;;;;;;3616675;39;20051;-61
2021/05/27 09:49:57;;;;;;;10.05;2.72;;;;;;;;;;3616344;39;20031;-60
2021/05/27 09:52:25;;;;;;;5.03;2.78;;;;;;;;;;3616985;39;20266;-61
2021/05/27 09:54:55;;;;;;;5.63;3.08;;;;;;;;;;3616614;39;20386;-61
2021/05/27 09:57:25;;;;;;;5.43;2.70;;;;;;;;;;3617132;39;20055;-61
2021/05/27 09:59:55;;;;;;;4.65;2.88;;;;;;;;;;3616306;39;20043;-61
2021/05/27 10:02:21;;;;;;;5.45;2.53;;;;;;;;;;3614437;39;20038;-61
2021/05/27 10:04:56;;;;;;;4.55;2.30;;;;;;;;;;3616622;39;20027;-61
2021/05/27 10:07:46;;;;;;;5.75;2.47;;;;;;;;;;3615219;39;20027;-61
2021/05/27 10:10:24;;;;;;;11.75;2.30;;;;;;;;;;3615725;39;20035;-61
2021/05/27 10:12:52;;;;;;;5.15;2.50;;;;;;;;;;3616785;39;20429;-61
2021/05/27 10:15:20;;;;;;;5.68;2.33;;;;;;;;;;3616860;39;20049;-61
2021/05/27 10:17:50;;;;;;;6.25;2.67;;;;;;;;;;3617074;39;20035;-60
2021/05/27 10:20:18;;;;;;;7.10;2.42;;;;;;;;;;3614553;39;20028;-61
2021/05/27 10:22:43;;;;;;;4.97;3.05;;;;;;;;;;3607244;39;20031;-61
2021/05/27 10:25:12;;;;;;;5.30;3.15;;;;;;;;;;3607292;39;20067;-60
2021/05/27 10:27:37;;;;;;;4.38;2.50;;;;;;;;;;3613204;39;20067;-61
2021/05/27 10:30:07;;;;;;;5.93;2.85;;;;;;;;;;3616311;39;20278;-62
2021/05/27 10:32:39;;;;;;;4.75;2.20;;;;;;;;;;3615675;39;20039;-62
2021/05/27 10:35:05;;;;;;;6.90;4.32;;;;;;;;;;3615324;39;20373;-61
2021/05/27 10:37:33;;;;;;;4.93;2.28;;;;;;;;;;3615648;39;20027;-61
2021/05/27 10:39:59;;;;;;;8.52;2.72;;;;;;;;;;3615779;39;20035;-61
2021/05/27 10:43:13;;;;;;;6.07;1.95;;;;;;;;;;3615810;39;20124;-60
2021/05/27 10:46:02;;;;;;;3.95;2.15;;;;;;;;;;3607060;39;20108;-61
2021/05/27 10:48:38;;;;;;;11.18;2.42;;;;;;;;;;3616047;39;20061;-61
2021/05/27 10:51:22;;;;;;;6.18;2.22;;;;;;;;;;3616697;39;20030;-61
2021/05/27 10:53:50;;;;;;;4.05;2.10;;;;;;;;;;3616175;39;20047;-62
2021/05/27 10:56:19;;;;;;;4.00;2.50;;;;;;;;;;3607048;39;20051;-62
2021/05/27 10:58:48;;;;;;;10.90;2.28;;;;;;;;;;3606583;39;20042;-62
2021/05/27 11:01:30;;;;;;;3.95;2.25;;;;;;;;;;3616128;39;20031;-61
2021/05/27 11:03:57;;;;;;;4.03;2.30;;;;;;;;;;3616515;39;20083;-62
2021/05/27 11:06:29;;;;;;;3.33;1.50;;;;;;;;;;3616414;39;20032;-62
2021/05/27 11:09:10;;;;;;;6.57;2.45;;;;;;;;;;3616672;39;20047;-61
2021/05/27 11:12:08;;;;;;;7.25;2.00;;;;;;;;;;3615133;39;20134;-61
2021/05/27 11:14:44;;;;;;;5.78;1.77;;;;;;;;;;3615536;39;20019;-61
2021/05/27 11:17:19;;;;;;;4.53;1.95;;;;;;;;;;3615814;39;20027;-61
2021/05/27 11:20:03;;;;;;;2.83;1.80;;;;;;;;;;3616097;39;20027;-61
2021/05/27 11:25:15;;;;;;;3.65;2.08;;;;;;;;;;3604995;39;20046;-62
2021/05/27 11:27:42;;;;;;;3.40;1.65;;;;;;;;;;3615951;39;20054;-61
2021/05/27 11:30:28;;;;;;;4.78;3.13;;;;;;;;;;3615451;39;20046;-61
2021/05/27 11:32:58;;;;;;;4.72;2.10;;;;;;;;;;3615825;39;20027;-61
2021/05/27 11:35:29;;;;;;;4.30;1.92;;;;;;;;;;3614913;39;20242;-61
2021/05/27 11:37:56;;;;;;;4.07;2.00;;;;;;;;;;3615770;39;20389;-62
2021/05/27 11:40:24;;;;;;;3.22;1.65;;;;;;;;;;3615093;39;20035;-61
2021/05/27 11:42:51;;;;;;;4.15;2.00;;;;;;;;;;3615988;39;20039;-61
2021/05/27 11:45:20;;;;;;;3.80;1.55;;;;;;;;;;3616291;39;20030;-62
2021/05/27 11:48:13;;;;;;;3.45;1.95;;;;;;;;;;3613142;39;20055;-62
2021/05/27 11:50:38;;;;;;;5.10;1.60;;;;;;;;;;3616081;39;20482;-62
2021/05/27 11:53:05;;;;;;;3.55;1.73;;;;;;;;;;3616527;39;20039;-62
2021/05/27 11:55:31;;;;;;;4.53;1.85;;;;;;;;;;3616145;39;20062;-62
2021/05/27 11:57:57;;;;;;;5.70;1.90;;;;;;;;;;3617429;39;20035;-62
2021/05/27 12:00:24;;;;;;;3.35;1.88;;;;;;;;;;3617592;39;20048;-62
2021/05/27 12:02:54;;;;;;;2.88;1.80;;;;;;;;;;3617300;39;20027;-62
2021/05/27 12:05:23;;;;;;;8.13;2.38;;;;;;;;;;3608417;39;20046;-62
2021/05/27 12:08:10;;;;;;;3.88;1.85;;;;;;;;;;3616081;39;20031;-63
2021/05/27 12:10:46;;;;;;;7.55;2.47;;;;;;;;;;3617050;39;20041;-62
2021/05/27 12:13:19;;;;;;;4.28;2.33;;;;;;;;;;3617865;39;20035;-62
2021/05/27 12:15:46;;;;;;;10.93;1.70;;;;;;;;;;3615955;39;20428;-62
2021/05/27 12:18:14;;;;;;;4.18;2.10;;;;;;;;;;3617149;39;20035;-62
2021/05/27 12:20:41;;;;;;;3.90;2.15;;;;;;;;;;3616378;39;20031;-64
2021/05/27 12:23:08;;;;;;;4.50;2.20;;;;;;;;;;3616641;39;20317;-62
2021/05/27 12:25:34;;;;;;;8.52;2.70;;;;;;;;;;3616100;39;20032;-63
2021/05/27 12:28:05;;;;;;;8.95;2.60;;;;;;;;;;3616078;39;20035;-63
2021/05/27 12:30:34;;;;;;;3.58;2.13;;;;;;;;;;3616040;39;20035;-63
2021/05/27 12:33:01;;;;;;;3.72;2.05;;;;;;;;;;3614753;39;20031;-63
2021/05/27 12:35:30;;;;;;;4.50;2.03;;;;;;;;;;3606071;39;20035;-64
2021/05/27 12:37:58;;;;;;;4.30;2.42;;;;;;;;;;3615664;39;20035;-63
2021/05/27 12:40:28;;;;;;;4.20;2.65;;;;;;;;;;3614558;39;20047;-64
2021/05/27 12:42:59;;;;;;;5.95;2.78;;;;;;;;;;3616775;39;20041;-63
2021/05/27 12:45:28;;;;;;;4.78;2.67;;;;;;;;;;3615984;39;20039;-63
2021/05/27 12:48:29;;;;;;;5.05;2.50;;;;;;;;;;3615473;39;20046;-63
2021/05/27 12:50:59;;;;;;;4.75;2.22;;;;;;;;;;3601717;39;20047;-63
2021/05/27 12:53:31;;;;;;;3.60;2.20;;;;;;;;;;3615646;39;20377;-63
2021/05/27 12:56:20;;;;;;;4.63;2.65;;;;;;;;;;3617487;39;20127;-63
2021/05/27 12:58:50;;;;;;;5.78;2.70;;;;;;;;;;3618017;39;20031;-62
2021/05/27 13:01:17;;;;;;;4.78;2.53;;;;;;;;;;3616495;39;20476;-63
2021/05/27 13:03:51;;;;;;;4.55;2.70;;;;;;;;;;3616282;39;20298;-63
2021/05/27 13:06:27;;;;;;;4.80;2.75;;;;;;;;;;3616977;39;20378;-62
2021/05/27 13:09:03;;;;;;;5.72;2.63;;;;;;;;;;3616399;39;20039;-62
2021/05/27 13:11:31;;;;;;;5.13;2.75;;;;;;;;;;3616677;39;20024;-62
2021/05/27 13:13:57;;;;;;;3.80;2.63;;;;;;;;;;3615929;39;20047;-62
2021/05/27 13:16:41;;;;;;;7.38;2.88;;;;;;;;;;3617170;39;20051;-63
2021/05/27 13:19:10;;;;;;;5.85;3.00;;;;;;;;;;3617035;39;20027;-63
2021/05/27 13:21:48;;;;;;;4.22;2.83;;;;;;;;;;3617044;39;20027;-62
2021/05/27 13:24:26;;;;;;;5.63;2.53;;;;;;;;;;3616750;39;20055;-63
2021/05/27 13:29:50;;;;;;;4.95;3.30;;;;;;;;;;3616349;39;20034;-63
2021/05/27 13:32:28;;;;;;;6.15;3.08;;;;;;;;;;3607609;39;20057;-63
2021/05/27 13:34:55;;;;;;;7.05;3.58;;;;;;;;;;3615540;39;20051;-64
2021/05/27 13:37:29;;;;;;;5.38;3.50;;;;;;;;;;3606908;39;20043;-63
2021/05/27 13:39:55;;;;;;;6.78;3.97;;;;;;;;;;3607647;39;20286;-64
2021/05/27 13:42:20;;;;;;;6.35;3.65;;;;;;;;;;3617831;39;20068;-64
2021/05/27 13:44:45;;;;;;;5.20;3.33;;;;;;;;;;3617347;39;20059;-64
2021/05/27 13:47:11;;;;;;;6.00;3.13;;;;;;;;;;3616833;39;20531;-64
2021/05/27 13:49:38;;;;;;;6.78;4.38;;;;;;;;;;3617080;39;20491;-64
2021/05/27 13:52:03;;;;;;;6.20;3.75;;;;;;;;;;3616704;39;20401;-64
2021/05/27 13:54:29;;;;;;;5.20;3.10;;;;;;;;;;3617463;39;20095;-64
2021/05/27 13:56:54;;;;;;;6.13;3.70;;;;;;;;;;3616068;39;20042;-63
2021/05/27 13:59:22;;;;;;;9.98;3.35;;;;;;;;;;3615871;39;20144;-64
2021/05/27 14:01:48;;;;;;;6.15;3.28;;;;;;;;;;3617171;39;20027;-64
2021/05/27 14:04:14;;;;;;;5.43;2.88;;;;;;;;;;3615147;39;20023;-64
2021/05/27 14:06:39;;;;;;;7.78;3.13;;;;;;;;;;3615078;39;20047;-64
2021/05/27 14:09:06;;;;;;;6.63;3.65;;;;;;;;;;3616481;39;20432;-64
2021/05/27 14:11:32;;;;;;;5.20;3.40;;;;;;;;;;3617015;39;20027;-64
2021/05/27 14:13:57;;;;;;;3.92;2.53;;;;;;;;;;3613593;39;20062;-64
2021/05/27 14:16:23;;;;;;;3.95;2.65;;;;;;;;;;3615775;39;20333;-64
2021/05/27 14:18:48;;;;;;;4.50;2.88;;;;;;;;;;3616298;39;20036;-63
2021/05/27 14:21:13;;;;;;;5.13;2.75;;;;;;;;;;3616673;39;20266;-64
2021/05/27 14:23:39;;;;;;;4.68;2.78;;;;;;;;;;3617026;39;20282;-64
2021/05/27 14:26:04;;;;;;;4.28;2.70;;;;;;;;;;3615871;39;20031;-64
2021/05/27 14:28:30;;;;;;;6.43;2.63;;;;;;;;;;3617509;39;20076;-63
2021/05/27 14:30:55;;;;;;;5.53;2.60;;;;;;;;;;3617365;39;20031;-63
2021/05/27 14:33:20;;;;;;;6.57;2.80;;;;;;;;;;3616967;39;20036;-63
2021/05/27 14:35:46;;;;;;;4.70;2.75;;;;;;;;;;3616476;39;20039;-63
2021/05/27 14:38:11;;;;;;;4.53;3.05;;;;;;;;;;3617120;39;20051;-63
2021/05/27 14:40:37;;;;;;;5.28;2.63;;;;;;;;;;3616885;39;20059;-63
2021/05/27 14:43:03;;;;;;;4.47;2.75;;;;;;;;;;3606972;39;20075;-63
2021/05/27 14:45:28;;;;;;;3.70;2.58;;;;;;;;;;3616722;39;20038;-64
2021/05/27 14:47:53;;;;;;;4.75;2.70;;;;;;;;;;3617500;39;20019;-65
2021/05/27 14:50:30;;;;;;;6.10;2.53;;;;;;;;;;3617080;39;20037;-64
2021/05/27 14:52:56;;;;;;;4.03;2.80;;;;;;;;;;3616238;39;20107;-64
2021/05/27 14:55:21;;;;;;;4.53;2.60;;;;;;;;;;3617437;39;20064;-64